Latest Weather Observations for Stawell

IDV60801

Issued at 5:02 pm EDT Thursday 23 March 2017 (issued every 30 minutes, with the page automatically refreshed every 10 minutes)

About weather observations | Map of weather stations | Latest weather observations for VIC | Other Formats
Station Details ID: 079105 Name: STAWELL AERODROME Lat: -37.07 Lon: 142.74 Height: 235.36 m
Data from the previous 72 hours. | See also: Recent months at Stawell
Date/Time
EDT
Temp
°C
App
Temp
°C
Dew
Point
°C
Rel
Hum
%
Delta-T
°C
Wind Press
QNH
hPa
Press
MSL
hPa
Rain since
9am
mm
Dir  Spd
km/h
Gust
km/h
Spd
kts
Gust
kts
23/05:00pm 23.7 19.7 11.7 47 6.8 SSE 24 35 13 19 1017.4 1016.8 0.0
23/04:30pm 23.5 19.2 11.9 48 6.6 SSE 26 33 14 18 1017.5 1016.9 0.0
23/04:00pm 24.0 20.9 12.3 48 6.7 SSE 20 30 11 16 1017.6 1017.0 0.0
23/03:30pm 22.9 18.5 11.6 49 6.4 SE 26 39 14 21 1017.6 1017.0 0.0
23/03:00pm 23.1 18.8 12.1 50 6.3 SSE 26 35 14 19 1017.9 1017.3 0.0
23/02:30pm 22.3 18.1 12.3 53 5.7 S 26 37 14 20 1018.5 1017.9 0.0
23/02:00pm 22.0 18.2 12.3 54 5.5 S 24 33 13 18 1018.8 1018.2 0.0
23/01:30pm 22.3 18.1 13.4 57 5.2 S 28 39 15 21 1018.9 1018.3 0.0
23/01:00pm 21.6 17.6 13.0 58 5.0 SSE 26 35 14 19 1019.2 1018.7 0.0
23/12:30pm 21.1 16.7 12.8 59 4.8 S 28 35 15 19 1019.6 1019.1 0.0
23/12:00pm 20.7 16.3 12.9 61 4.5 S 28 33 15 18 1019.8 1019.3 0.0
23/11:30am 20.0 16.7 12.7 63 4.2 S 22 30 12 16 1020.1 1019.5 0.0
23/11:00am 19.0 16.0 12.7 67 3.6 S 20 28 11 15 1020.2 1019.6 0.0
23/10:30am 18.3 14.6 12.7 70 3.2 SSE 24 32 13 17 1020.2 1019.6 0.0
23/10:00am 18.0 15.7 12.9 72 2.9 S 17 24 9 13 1020.0 1019.4 0.0
23/09:30am 16.8 13.8 12.7 77 2.3 S 20 30 11 16 1020.0 1019.4 0.0
23/09:00am 15.8 12.0 12.4 80 1.9 S 24 33 13 18 1019.8 1019.3 0.0
23/08:30am 15.6 12.6 12.4 81 1.8 S 20 26 11 14 1019.7 1019.2 0.0
23/08:00am 15.0 12.5 12.3 84 1.5 S 17 24 9 13 1019.2 1018.7 0.0
23/07:30am 14.7 12.2 12.2 85 1.4 S 17 24 9 13 1018.9 1018.3 0.0
23/07:00am 14.6 12.5 12.3 86 1.3 S 15 22 8 12 1018.4 1017.8 0.0
23/06:30am 14.8 12.4 12.5 86 1.3 S 17 26 9 14 1018.2 1017.6 0.0
23/06:00am 14.9 12.5 12.6 86 1.3 S 17 24 9 13 1018.2 1017.6 0.0
23/05:30am 15.0 12.2 12.5 85 1.4 S 19 24 10 13 1018.1 1017.5 0.0
23/05:00am 14.9 12.5 12.6 86 1.3 S 17 30 9 16 1018.0 1017.4 0.0
23/04:30am 15.1 12.4 12.8 86 1.3 S 19 30 10 16 1018.0 1017.4 0.0
23/04:00am 15.5 13.5 12.8 84 1.5 S 15 24 8 13 1017.9 1017.3 0.0
23/03:30am 15.6 13.3 13.1 85 1.4 S 17 24 9 13 1017.9 1017.3 0.0
23/03:00am 15.9 13.7 13.2 84 1.5 S 17 24 9 13 1017.9 1017.3 0.0
23/02:30am 15.8 14.4 13.3 85 1.4 S 13 22 7 12 1018.0 1017.4 0.0
23/02:00am 16.2 14.8 13.3 83 1.6 S 13 19 7 10 1018.1 1017.5 0.0
23/01:30am 16.3 14.9 13.4 83 1.6 S 13 22 7 12 1018.4 1017.8 0.0
23/01:00am 16.5 14.3 13.2 81 1.9 S 17 33 9 18 1018.5 1017.9 0.0
23/12:30am 16.8 14.3 13.5 81 1.9 SSE 19 30 10 16 1018.6 1018.0 0.0
23/12:00am 16.9 13.3 13.2 79 2.1 SSE 24 37 13 20 1018.5 1017.9 0.0
 
Date/Time
EDT
Temp
°C
App
Temp
°C
Dew
Point
°C
Rel
Hum
%
Delta-T
°C
Wind Press
QNH
hPa
Press
MSL
hPa
Rain since
9am
mm
Dir  Spd
km/h
Gust
km/h
Spd
kts
Gust
kts
22/11:40pm 17.0 12.7 13.3 79 2.1 SSE 28 46 15 25 1018.4 1017.8 0.0
22/11:30pm 16.9 12.6 13.2 79 2.1 SSE 28 44 15 24 1018.6 1018.0 0.0
22/11:00pm 17.2 12.1 13.1 77 2.3 SSE 32 50 17 27 1018.5 1017.9 0.0
22/10:58pm 17.2 12.1 13.1 77 2.3 SSE 32 50 17 27 1018.5 1017.9 0.0
22/10:30pm 17.3 12.0 13.0 76 2.4 SSE 33 44 18 24 1018.4 1017.8 0.0
22/10:04pm 17.0 12.3 13.1 78 2.2 SSE 30 48 16 26 1018.1 1017.5 0.0
22/10:00pm 17.1 12.0 13.0 77 2.3 SSE 32 48 17 26 1018.1 1017.5 0.0
22/09:31pm 17.4 12.7 13.1 76 2.4 SSE 30 48 16 26 1017.9 1017.3 0.0
22/09:30pm 17.4 12.3 13.1 76 2.4 SSE 32 48 17 26 1017.9 1017.3 0.0
22/09:24pm 17.4 13.1 13.1 76 2.4 SSE 28 48 15 26 1017.9 1017.3 0.0
22/09:00pm 17.6 13.7 13.3 76 2.4 SSE 26 39 14 21 1018.0 1017.4 0.0
22/08:30pm 17.9 14.8 13.4 75 2.6 S 22 35 12 19 1017.6 1017.0 0.0
22/08:00pm 18.2 16.0 13.3 73 2.8 S 17 26 9 14 1017.4 1016.8 0.0
22/07:30pm 18.6 15.9 13.5 72 2.9 S 20 33 11 18 1017.4 1016.8 0.0
22/07:00pm 19.1 16.3 13.3 69 3.3 S 20 37 11 20 1017.2 1016.6 0.0
22/06:30pm 19.5 16.0 13.4 68 3.5 SSE 24 39 13 21 1016.7 1016.1 0.0
22/06:00pm 19.9 14.7 12.9 64 4.0 SSE 32 48 17 26 1016.2 1015.6 0.0
22/05:33pm 20.2 15.1 13.2 64 4.0 SSE 32 50 17 27 1016.4 1015.8 0.0
22/05:30pm 20.1 14.7 12.8 63 4.2 SSE 33 50 18 27 1016.3 1015.7 0.0
22/05:26pm 20.1 15.0 13.1 64 4.0 SSE 32 50 17 27 1016.4 1015.8 0.0
22/05:00pm 20.6 16.5 13.8 65 4.0 SSE 28 41 15 22 1016.2 1015.6 0.0
22/04:30pm 20.9 16.7 13.6 63 4.2 SSE 28 41 15 22 1016.3 1015.7 0.0
22/04:02pm 20.5 16.4 13.9 66 3.9 SSE 28 50 15 27 1016.5 1015.9 0.0
22/04:00pm 20.4 16.5 14.5 69 3.5 SSE 28 44 15 24 1016.5 1015.9 0.0
22/03:30pm 19.2 14.8 14.2 73 2.9 SSE 30 39 16 21 1016.6 1016.0 0.0
22/03:00pm 19.1 15.3 14.6 75 2.6 SSE 28 43 15 23 1016.7 1016.1 0.0
22/02:30pm 19.6 14.9 14.4 72 3.0 S 32 52 17 28 1016.5 1015.9 0.0
22/02:26pm 20.0 16.2 14.6 71 3.2 S 28 46 15 25 1016.4 1015.8 0.0
22/02:00pm 19.7 14.9 14.1 70 3.3 SSE 32 44 17 24 1016.7 1016.1 0.0
22/01:30pm 18.8 14.5 14.3 75 2.6 SSE 30 43 16 23 1016.9 1016.3 0.0
22/01:00pm 18.6 14.7 14.3 76 2.5 S 28 43 15 23 1017.1 1016.5 0.0
22/12:30pm 19.1 14.6 13.9 72 3.0 SSE 30 46 16 25 1017.1 1016.5 0.0
22/12:15pm 18.7 13.9 14.0 74 2.7 SSE 32 50 17 27 1017.4 1016.8 0.0
22/12:00pm 18.9 14.0 14.4 75 2.6 SSE 33 48 18 26 1017.3 1016.7 0.0
22/11:51am 18.9 14.5 14.2 74 2.7 SSE 30 48 16 26 1017.3 1016.7 0.0
22/11:30am 19.8 16.2 15.2 75 2.7 SSE 28 43 15 23 1017.3 1016.7 0.0
22/11:02am 19.3 14.5 14.1 72 3.0 SSE 32 56 17 30 1017.2 1016.6 0.0
22/11:00am 19.4 15.0 14.2 72 3.0 SSE 30 43 16 23 1017.1 1016.5 0.0
22/10:30am 18.6 13.8 14.1 75 2.6 SSE 32 50 17 27 1016.8 1016.2 0.0
22/10:29am 18.8 14.5 14.3 75 2.6 SSE 30 50 16 27 1016.8 1016.2 0.0
22/10:00am 17.8 14.5 14.9 83 1.7 SSE 26 37 14 20 1016.8 1016.2 0.0
22/09:30am 17.3 14.3 14.8 85 1.5 SSE 24 37 13 20 1016.8 1016.2 0.0
22/09:00am 17.1 14.3 14.4 84 1.6 SSE 22 33 12 18 1016.7 1016.1 5.4
22/08:30am 16.8 14.4 14.4 86 1.4 SSE 20 32 11 17 1016.6 1016.0 5.4
22/08:00am 16.8 14.0 14.4 86 1.4 S 22 33 12 18 1016.3 1015.7 5.4
22/07:30am 16.7 13.5 14.3 86 1.4 SSE 24 35 13 19 1015.9 1015.3 5.4
22/07:00am 16.7 14.0 14.7 88 1.2 S 22 33 12 18 1015.6 1015.0 5.4
22/06:30am 16.4 13.4 14.9 91 0.9 S 24 32 13 17 1015.2 1014.6 5.4
22/06:00am 16.5 13.9 15.0 91 0.9 S 22 32 12 17 1014.9 1014.3 5.4
22/05:30am 16.5 14.3 14.9 90 0.9 S 20 30 11 16 1014.6 1014.0 5.4
22/05:00am 16.5 13.2 14.9 90 0.9 S 26 41 14 22 1014.4 1013.8 5.4
22/04:30am 16.5 14.1 15.4 93 0.6 S 22 35 12 19 1014.3 1013.7 5.4
22/04:00am 16.7 14.7 15.4 92 0.8 S 20 28 11 15 1014.5 1013.9 5.4
22/03:30am 16.8 14.4 15.5 92 0.8 S 22 37 12 20 1014.3 1013.7 5.4
22/03:00am 16.7 14.3 15.4 92 0.8 S 22 37 12 20 1014.1 1013.5 5.4
22/02:30am 16.8 14.9 15.7 93 0.7 SSW 20 35 11 19 1014.3 1013.7 5.4
22/02:00am 17.1 15.3 16.0 93 0.7 S 20 33 11 18 1014.0 1013.4 5.4
22/01:30am 17.0 15.2 16.0 94 0.6 S 20 28 11 15 1014.0 1013.4 5.4
22/01:00am 17.1 15.4 16.3 95 0.5 S 20 30 11 16 1013.7 1013.1 5.4
22/12:30am 17.4 15.8 16.6 95 0.5 S 20 30 11 16 1013.6 1013.0 5.4
22/12:00am 18.3 17.7 17.5 95 0.5 S 17 24 9 13 1013.0 1012.4 5.4
 
Date/Time
EDT
Temp
°C
App
Temp
°C
Dew
Point
°C
Rel
Hum
%
Delta-T
°C
Wind Press
QNH
hPa
Press
MSL
hPa
Rain since
9am
mm
Dir  Spd
km/h
Gust
km/h
Spd
kts
Gust
kts
21/11:30pm 19.0 17.9 17.7 92 0.8 SSE 20 28 11 15 1012.6 1012.0 5.4
21/11:00pm 18.6 19.2 17.8 95 0.5 SSW 11 19 6 10 1012.7 1012.1 5.4
21/10:30pm 18.8 18.8 17.3 91 0.9 SSE 13 22 7 12 1012.4 1011.8 5.4
21/10:00pm 18.7 18.6 17.0 90 1.0 S 13 22 7 12 1012.2 1011.6 5.4
21/09:30pm 19.5 18.1 16.5 83 1.8 SSE 19 32 10 17 1011.7 1011.0 5.4
21/09:00pm 19.8 18.9 16.8 83 1.8 SE 17 22 9 12 1011.4 1010.7 5.4
21/08:30pm 20.0 20.0 17.2 84 1.7 S 13 19 7 10 1012.2 1011.6 5.4
21/08:00pm 20.5 21.8 17.5 83 1.9 SSW 7 15 4 8 1011.7 1011.0 5.4
21/07:30pm 20.9 20.2 17.3 80 2.2 S 17 24 9 13 1011.1 1010.4 5.4
21/07:00pm 21.5 20.8 17.3 77 2.6 S 17 24 9 13 1011.2 1010.5 5.4
21/06:30pm 21.5 19.8 17.1 76 2.7 SSE 22 35 12 19 1010.6 1010.0 5.4
21/06:00pm 22.5 21.6 18.3 77 2.7 SSE 20 28 11 15 1010.4 1009.8 5.4
21/05:30pm 23.2 22.8 18.1 73 3.2 S 17 24 9 13 1010.3 1009.7 5.4
21/05:00pm 23.2 22.3 18.1 73 3.2 SSW 20 28 11 15 1010.1 1009.5 5.4
21/04:30pm 22.9 24.1 18.2 75 3.0 SW 9 15 5 8 1010.0 1009.4 5.4
21/04:00pm 23.0 25.1 19.0 78 2.6 WSW 6 9 3 5 1010.3 1009.7 5.4
21/03:30pm 21.5 22.0 18.3 82 2.0 SSW 13 22 7 12 1009.8 1009.2 5.4
21/03:00pm 20.9 21.0 17.5 81 2.1 W 13 19 7 10 1011.4 1010.7 5.4
21/02:30pm 20.8 20.6 17.6 82 2.0 WNW 15 22 8 12 1011.5 1010.8 5.4
21/02:00pm 20.9 22.7 19.6 92 0.8 WNW 9 15 5 8 1011.6 1010.9 5.4
21/01:30pm 20.9 21.4 19.2 90 1.1 NW 15 28 8 15 1011.7 1011.0 5.2
21/01:00pm 22.2 24.1 20.5 90 1.1 NNW 11 17 6 9 1011.8 1011.2 3.0
21/12:30pm 21.0 23.7 20.3 96 0.5 WNW 6 7 3 4 1012.2 1011.6 3.0
21/12:00pm 20.7 23.3 20.0 96 0.5 NW 6 9 3 5 1012.3 1011.7 3.0
21/11:30am 21.6 23.7 20.1 91 1.0 NW 9 15 5 8 1012.4 1011.8 0.0
21/11:00am 22.2 24.0 19.6 85 1.7 NE 9 13 5 7 1012.4 1011.8 0.0
21/10:30am 21.6 25.3 19.9 90 1.1 CALM 0 0 0 0 1012.5 1011.9 0.0
21/10:00am 21.3 23.6 19.9 92 0.9 ESE 7 9 4 5 1012.4 1011.8 0.0
21/09:30am 20.7 22.8 19.4 92 0.8 ESE 7 11 4 6 1012.4 1011.8 0.0
21/09:00am 20.6 22.4 19.6 94 0.6 SE 9 13 5 7 1012.3 1011.7 15.4
21/08:30am 20.3 22.5 19.5 95 0.5 ESE 7 9 4 5 1012.4 1011.8 15.4
21/08:00am 20.0 22.2 19.5 97 0.3 SE 7 9 4 5 1012.2 1011.6 15.4
21/07:30am 19.8 22.3 19.8 100 0.0 ESE 6 7 3 4 1012.1 1011.5 15.4
21/07:00am 19.1 21.9 18.9 99 0.1 SSW 2 6 1 3 1012.1 1011.5 15.4
21/06:30am 18.9 20.7 18.7 99 0.1 SSW 7 11 4 6 1012.0 1011.4 15.2
21/06:00am 19.1 21.2 18.9 99 0.1 SW 6 9 3 5 1012.1 1011.5 15.2
21/05:30am 19.4 21.6 19.2 99 0.1 SSW 6 7 3 4 1012.0 1011.4 15.2
21/05:00am 19.9 22.3 19.6 98 0.2 SE 6 6 3 3 1012.3 1011.7 14.8
21/04:30am 20.0 22.0 19.2 95 0.5 SE 7 9 4 5 1012.4 1011.8 14.6
21/04:00am 20.2 22.1 18.9 92 0.8 SE 7 13 4 7 1012.6 1012.0 14.2
21/03:30am 20.4 23.1 19.4 94 0.6 SE 4 7 2 4 1012.8 1012.2 14.2
21/03:00am 20.3 21.5 19.0 92 0.8 SE 11 13 6 7 1012.8 1012.2 14.2
21/02:30am 20.1 21.4 19.3 95 0.5 SE 11 17 6 9 1013.1 1012.5 14.2
21/02:00am 20.0 21.3 19.2 95 0.5 ESE 11 17 6 9 1013.3 1012.7 14.2
21/01:30am 19.9 23.5 19.7 99 0.1 CALM 0 0 0 0 1013.1 1012.5 14.2
21/01:00am 20.0 22.9 19.8 99 0.1 SE 4 7 2 4 1012.9 1012.3 14.2
21/12:30am 19.9 21.3 19.6 98 0.2 SSW 11 15 6 8 1013.2 1012.6 14.2
21/12:00am 20.1 21.3 19.8 98 0.2 SW 13 17 7 9 1013.4 1012.8 14.2
 
Date/Time
EDT
Temp
°C
App
Temp
°C
Dew
Point
°C
Rel
Hum
%
Delta-T
°C
Wind Press
QNH
hPa
Press
MSL
hPa
Rain since
9am
mm
Dir  Spd
km/h
Gust
km/h
Spd
kts
Gust
kts
20/11:30pm 19.9 23.1 19.7 99 0.1 S 2 11 1 6 1014.1 1013.5 14.2
20/11:00pm 19.9 20.4 19.2 96 0.4 SSW 15 22 8 12 1014.5 1013.9 11.6
20/10:30pm 20.2 21.7 19.0 93 0.8 SW 9 15 5 8 1014.6 1014.0 10.2
20/10:00pm 22.0 22.4 18.2 79 2.4 S 13 17 7 9 1014.3 1013.7 8.0
20/09:30pm 22.7 22.0 17.4 72 3.3 SSE 17 22 9 12 1014.2 1013.6 7.8
20/09:00pm 23.2 22.7 17.0 68 3.8 SE 15 24 8 13 1014.3 1013.7 7.8
20/08:30pm 23.2 22.5 17.4 70 3.6 SSE 17 24 9 13 1013.5 1012.9 7.8
20/08:00pm 23.5 24.1 18.6 74 3.1 SSE 13 19 7 10 1013.0 1012.4 7.8
20/07:30pm 24.5 23.7 18.0 67 4.1 S 19 28 10 15 1012.4 1011.8 7.8
20/07:00pm 25.3 24.1 17.5 62 4.9 SSE 20 30 11 16 1012.3 1011.7 7.8
20/06:30pm 25.8 24.3 17.7 61 5.1 SSE 22 30 12 16 1012.4 1011.8 7.8
20/06:00pm 25.8 24.2 17.4 59 5.3 SSE 22 35 12 19 1012.4 1011.8 7.8
20/05:30pm 26.0 24.5 17.6 60 5.3 SSE 22 32 12 17 1012.6 1012.0 7.8

Other Formats:

Comma delimited format used in spreadsheet applications
http://www.bom.gov.au/fwo/IDV60801/IDV60801.94836.axf

JavaScript Object Notation format (JSON) in row-major order
http://www.bom.gov.au/fwo/IDV60801/IDV60801.94836.json